Time;durP1;ratioP1;P1;durP2;ratioP2;P2;SDS_P1;SDS_P2;PMS_P1;PMS_P2;Temp;Humidity;BMP_temperature;BMP_pressure;BME280_temperature;BME280_humidity;BME280_pressure;Samples;Min_cycle;Max_cycle;Signal;HPM_P1;HPM_P2
2023/01/30 00:01:45;;;;;;;46.22;27.67;;;;;;;3.64;100.00;101707.28;5242827;28;20467;-76
2023/01/30 00:04:16;;;;;;;47.15;27.77;;;;;;;3.69;100.00;101692.16;5236372;28;20029;-76
2023/01/30 00:06:48;;;;;;;47.15;27.88;;;;;;;3.71;100.00;101671.00;5241143;28;20554;-76
2023/01/30 00:09:19;;;;;;;44.63;26.58;;;;;;;3.75;100.00;101685.81;5250662;28;20498;-76
2023/01/30 00:11:50;;;;;;;44.47;26.17;;;;;;;3.79;100.00;101682.16;5243651;28;20064;-77
2023/01/30 00:14:22;;;;;;;46.17;27.00;;;;;;;3.80;100.00;101681.25;5243878;28;20025;-76
2023/01/30 00:16:53;;;;;;;43.90;26.85;;;;;;;3.83;100.00;101678.47;5241282;28;20033;-76
2023/01/30 00:19:24;;;;;;;42.17;28.13;;;;;;;3.80;100.00;101668.06;5245532;28;20024;-76
2023/01/30 00:21:55;;;;;;;43.53;26.88;;;;;;;3.89;100.00;101651.00;5240612;28;20530;-76
2023/01/30 00:24:27;;;;;;;45.40;26.25;;;;;;;3.90;100.00;101658.03;5248305;28;20029;-76
2023/01/30 00:26:58;;;;;;;45.47;27.35;;;;;;;3.91;100.00;101651.81;5256744;28;20134;-76
2023/01/30 00:29:29;;;;;;;41.78;26.73;;;;;;;3.91;100.00;101668.53;5247700;28;20028;-76
2023/01/30 00:32:00;;;;;;;43.08;27.00;;;;;;;3.92;100.00;101675.53;5241110;28;20356;-76
2023/01/30 00:34:32;;;;;;;42.40;27.67;;;;;;;3.96;100.00;101678.91;5247218;28;20052;-76
2023/01/30 00:37:04;;;;;;;43.58;26.83;;;;;;;3.96;100.00;101671.00;5260290;28;20521;-76
2023/01/30 00:39:35;;;;;;;40.38;26.00;;;;;;;3.99;100.00;101662.09;5254767;28;20499;-76
2023/01/30 00:47:48;;;;;;;45.80;28.13;;;;;;;4.07;100.00;101653.00;5249074;28;20036;-76
2023/01/30 00:50:20;;;;;;;44.22;26.92;;;;;;;4.07;100.00;101650.34;5251441;28;20021;-76
2023/01/30 00:52:51;;;;;;;40.42;25.88;;;;;;;4.08;100.00;101646.78;5249667;28;20340;-76
2023/01/30 00:55:22;;;;;;;40.58;26.50;;;;;;;4.15;100.00;101660.63;5247830;28;20029;-77
2023/01/30 00:57:53;;;;;;;45.65;27.23;;;;;;;4.18;100.00;101654.38;5249772;28;20028;-76
2023/01/30 01:00:25;;;;;;;45.00;27.67;;;;;;;4.16;100.00;101658.84;5252613;28;20087;-76
2023/01/30 01:02:56;;;;;;;44.85;26.83;;;;;;;4.17;100.00;101647.38;5247451;28;20037;-76
2023/01/30 01:05:27;;;;;;;45.45;29.10;;;;;;;4.18;100.00;101647.34;5244813;28;20032;-76
2023/01/30 01:07:58;;;;;;;43.78;26.50;;;;;;;4.19;100.00;101650.81;5238314;28;20021;-76
2023/01/30 01:10:31;;;;;;;41.80;27.15;;;;;;;4.18;100.00;101641.16;5249720;28;20463;-76
2023/01/30 01:13:03;;;;;;;43.50;27.75;;;;;;;4.18;100.00;101646.44;5242823;28;20391;-77
2023/01/30 01:15:34;;;;;;;41.33;27.67;;;;;;;4.21;100.00;101647.19;5241152;28;20028;-76
2023/01/30 01:18:05;;;;;;;46.03;27.42;;;;;;;4.25;100.00;101638.25;5242963;28;20129;-76
2023/01/30 01:20:37;;;;;;;43.33;27.13;;;;;;;4.25;100.00;101630.31;5239172;28;20051;-76
2023/01/30 01:23:09;;;;;;;39.13;26.83;;;;;;;4.27;100.00;101641.69;5239044;28;20107;-76
2023/01/30 01:25:40;;;;;;;38.85;26.13;;;;;;;4.32;100.00;101636.25;5239835;28;20394;-76
2023/01/30 01:28:11;;;;;;;40.15;26.00;;;;;;;4.34;100.00;101637.06;5252220;28;20032;-76
2023/01/30 01:30:43;;;;;;;38.85;25.92;;;;;;;4.37;100.00;101620.22;5237961;28;20140;-77
2023/01/30 01:33:14;;;;;;;41.70;26.38;;;;;;;4.36;100.00;101622.00;5239024;28;20479;-76
2023/01/30 01:35:48;;;;;;;41.92;25.65;;;;;;;4.38;100.00;101614.88;5237629;28;20497;-76
2023/01/30 01:38:19;;;;;;;44.38;26.27;;;;;;;4.38;100.00;101609.59;5241312;28;20399;-76
2023/01/30 01:41:05;;;;;;;40.05;25.65;;;;;;;4.40;100.00;101613.03;5248609;28;20033;-76
2023/01/30 01:43:58;;;;;;;39.25;26.15;;;;;;;4.49;100.00;101619.75;5247693;28;20032;-76
2023/01/30 01:46:56;;;;;;;41.67;26.40;;;;;;;4.46;100.00;101614.56;5251097;28;20032;-76
2023/01/30 01:49:32;;;;;;;39.55;26.23;;;;;;;4.46;100.00;101604.88;5248253;28;20040;-77
2023/01/30 01:52:14;;;;;;;42.33;25.98;;;;;;;4.47;100.00;101592.53;5244750;28;20032;-76
2023/01/30 01:54:55;;;;;;;40.45;26.08;;;;;;;4.51;100.00;101586.19;5250650;28;20033;-77
2023/01/30 01:57:36;;;;;;;41.83;25.55;;;;;;;4.50;100.00;101568.63;5243933;28;20059;-76
2023/01/30 02:00:13;;;;;;;39.45;25.95;;;;;;;4.53;100.00;101571.16;5248873;28;20021;-76
2023/01/30 02:03:07;;;;;;;42.70;26.35;;;;;;;4.57;100.00;101564.81;5249634;28;20063;-76
2023/01/30 02:05:45;;;;;;;41.50;25.27;;;;;;;4.57;100.00;101563.97;5254136;28;20465;-76
2023/01/30 02:08:23;;;;;;;41.20;26.23;;;;;;;4.58;100.00;101570.94;5265719;28;20035;-76
2023/01/30 02:11:04;;;;;;;39.97;26.88;;;;;;;4.65;100.00;101570.66;5256557;28;20062;-76
2023/01/30 02:13:35;;;;;;;41.22;25.48;;;;;;;4.62;100.00;101568.16;5243094;28;20036;-76
2023/01/30 02:16:08;;;;;;;38.53;25.40;;;;;;;4.64;100.00;101565.41;5248370;28;20017;-76
2023/01/30 02:18:42;;;;;;;37.95;24.77;;;;;;;4.66;100.00;101556.53;5244846;28;20174;-76
2023/01/30 02:21:40;;;;;;;28.50;19.13;;;;;;;4.74;100.00;101547.41;5237061;28;20029;-77
2023/01/30 02:24:11;;;;;;;38.78;24.23;;;;;;;4.71;100.00;101540.47;5240573;28;20036;-77
2023/01/30 02:27:03;;;;;;;39.08;24.88;;;;;;;4.75;100.00;101535.91;5239064;28;20059;-76
2023/01/30 02:29:46;;;;;;;42.22;27.10;;;;;;;4.74;100.00;101526.25;5237281;28;20036;-76
2023/01/30 02:32:44;;;;;;;39.75;26.13;;;;;;;4.76;100.00;101524.44;5245395;28;20036;-77
2023/01/30 02:35:44;;;;;;;42.70;24.88;;;;;;;4.79;100.00;101527.78;5247427;28;20503;-76
2023/01/30 02:38:30;;;;;;;38.92;24.92;;;;;;;4.76;100.00;101527.06;5252721;28;20029;-76
2023/01/30 02:41:10;;;;;;;40.13;26.17;;;;;;;4.78;100.00;101520.78;5249627;28;21296;-77
2023/01/30 02:43:50;;;;;;;45.53;26.33;;;;;;;4.78;100.00;101536.66;5245455;28;20167;-76
2023/01/30 02:46:33;;;;;;;45.67;27.05;;;;;;;4.81;100.00;101536.50;5252731;28;20436;-77
2023/01/30 02:49:12;;;;;;;41.85;25.65;;;;;;;4.81;100.00;101525.94;5257796;28;20379;-76
2023/01/30 02:51:46;;;;;;;40.35;26.73;;;;;;;4.79;100.00;101532.22;5249518;28;20511;-76
2023/01/30 02:54:17;;;;;;;40.85;26.63;;;;;;;4.82;100.00;101527.66;5254508;28;20035;-77
2023/01/30 02:56:51;;;;;;;44.08;28.13;;;;;;;4.82;100.00;101527.66;5245042;28;20028;-76
2023/01/30 02:59:29;;;;;;;41.42;25.90;;;;;;;4.83;100.00;101515.28;5248750;28;20488;-77
2023/01/30 03:02:36;;;;;;;39.85;26.48;;;;;;;4.82;100.00;101530.31;5252241;28;20036;-76
2023/01/30 03:05:35;;;;;;;43.63;26.20;;;;;;;4.85;100.00;101522.25;5250643;28;20029;-76
2023/01/30 03:08:29;;;;;;;42.80;27.88;;;;;;;4.86;100.00;101509.91;5261887;28;20119;-77
2023/01/30 03:11:04;;;;;;;45.75;27.63;;;;;;;4.86;100.00;101509.91;5258828;28;20031;-76
2023/01/30 03:13:55;;;;;;;42.88;27.25;;;;;;;4.85;100.00;101511.69;5254584;28;20123;-76
2023/01/30 03:16:37;;;;;;;44.13;27.38;;;;;;;4.85;100.00;101502.88;5244429;28;20033;-76
2023/01/30 03:19:11;;;;;;;45.72;29.17;;;;;;;4.84;100.00;101485.31;5263329;28;20387;-77
2023/01/30 03:21:43;;;;;;;43.60;27.50;;;;;;;4.86;100.00;101499.31;5252323;28;20446;-75
2023/01/30 03:24:15;;;;;;;47.35;29.88;;;;;;;4.83;100.00;101502.06;5255760;28;20032;-76
2023/01/30 03:26:53;;;;;;;50.63;30.30;;;;;;;4.79;100.00;101498.69;5252162;28;20029;-75
2023/01/30 03:29:24;;;;;;;49.95;30.25;;;;;;;4.79;100.00;101496.06;5255817;28;20032;-75
2023/01/30 03:31:56;;;;;;;50.63;30.95;;;;;;;4.79;100.00;101498.69;5254786;28;20028;-76
2023/01/30 03:34:27;;;;;;;48.83;30.60;;;;;;;4.81;100.00;101503.94;5253484;28;20499;-75
2023/01/30 03:36:58;;;;;;;51.47;29.70;;;;;;;4.78;100.00;101504.94;5250638;28;20430;-76
2023/01/30 03:39:30;;;;;;;47.28;30.17;;;;;;;4.77;100.00;101497.06;5252900;28;20037;-76
2023/01/30 03:42:01;;;;;;;50.40;30.80;;;;;;;4.78;100.00;101483.78;5253307;28;20119;-75
2023/01/30 03:44:32;;;;;;;52.55;31.58;;;;;;;4.78;100.00;101475.84;5252907;28;20143;-76
2023/01/30 03:47:05;;;;;;;51.20;30.08;;;;;;;4.77;100.00;101467.97;5249245;28;20479;-76
2023/01/30 03:49:36;;;;;;;51.95;30.50;;;;;;;4.77;100.00;101486.47;5248864;28;20437;-76
2023/01/30 03:52:08;;;;;;;50.28;30.80;;;;;;;4.78;100.00;101483.78;5245975;28;20063;-76
2023/01/30 03:54:39;;;;;;;53.63;31.35;;;;;;;4.75;100.00;101483.91;5249520;28;20814;-76
2023/01/30 03:57:10;;;;;;;53.50;31.95;;;;;;;4.78;100.00;101482.94;5252459;28;20033;-75
2023/01/30 03:59:42;;;;;;;50.90;31.23;;;;;;;4.80;100.00;101481.94;5249354;28;20039;-75
2023/01/30 04:02:13;;;;;;;49.95;30.17;;;;;;;4.77;100.00;101478.56;5249916;28;20168;-75
2023/01/30 04:04:45;;;;;;;53.90;31.35;;;;;;;4.80;100.00;101476.63;5253543;28;20052;-75
2023/01/30 04:07:16;;;;;;;54.63;32.00;;;;;;;4.81;100.00;101483.63;5247417;28;20487;-76
2023/01/30 04:09:47;;;;;;;53.42;31.45;;;;;;;4.82;100.00;101500.38;5250668;28;20475;-75
2023/01/30 04:12:19;;;;;;;50.90;31.13;;;;;;;4.84;100.00;101493.25;5247867;28;20064;-76
2023/01/30 04:14:50;;;;;;;53.55;30.90;;;;;;;4.85;100.00;101484.38;5253039;28;20340;-76
2023/01/30 04:17:21;;;;;;;53.25;32.17;;;;;;;4.88;100.00;101487.75;5253450;28;20547;-75
2023/01/30 04:19:52;;;;;;;51.00;31.52;;;;;;;4.89;100.00;101488.63;5264291;28;20039;-75
2023/01/30 04:22:24;;;;;;;44.60;30.40;;;;;;;4.93;100.00;101477.00;5242242;28;20481;-75
2023/01/30 04:24:55;;;;;;;48.20;29.98;;;;;;;4.96;100.00;101483.91;5241153;28;20115;-75
2023/01/30 04:27:26;;;;;;;44.50;29.45;;;;;;;4.99;100.00;101473.22;5241347;28;20041;-75
2023/01/30 04:29:58;;;;;;;49.30;29.45;;;;;;;4.99;100.00;101468.78;5242071;28;20068;-74
2023/01/30 04:32:29;;;;;;;47.97;29.08;;;;;;;5.00;100.00;101464.34;5243193;28;20478;-74
2023/01/30 04:35:00;;;;;;;46.35;28.15;;;;;;;5.04;100.00;101466.81;5251032;28;20437;-75
2023/01/30 04:37:32;;;;;;;42.53;27.00;;;;;;;5.09;100.00;101467.44;5240795;28;20075;-75
2023/01/30 04:40:04;;;;;;;43.75;26.08;;;;;;;5.16;100.00;101467.19;5245645;28;20040;-75
2023/01/30 04:42:35;;;;;;;43.08;25.90;;;;;;;5.18;100.00;101470.63;5246174;28;20145;-75
2023/01/30 04:45:07;;;;;;;42.92;25.98;;;;;;;5.21;100.00;101474.00;5243388;28;20040;-75
2023/01/30 04:47:38;;;;;;;45.03;25.13;;;;;;;5.20;100.00;101467.00;5255869;28;20033;-75
2023/01/30 04:50:10;;;;;;;41.17;25.33;;;;;;;5.19;100.00;101472.34;5240156;28;20527;-75
2023/01/30 04:52:41;;;;;;;39.42;24.38;;;;;;;5.24;100.00;101473.88;5254497;28;20652;-74
2023/01/30 04:55:13;;;;;;;32.78;21.48;;;;;;;5.28;100.00;101477.25;5251317;28;20044;-75
2023/01/30 04:57:44;;;;;;;37.80;21.10;;;;;;;5.35;100.00;101483.09;5250464;28;20061;-75
2023/01/30 05:00:16;;;;;;;35.20;20.77;;;;;;;5.36;100.00;101479.53;5242677;28;20035;-75
2023/01/30 05:02:47;;;;;;;38.50;20.25;;;;;;;5.34;100.00;101476.09;5240311;28;20028;-74
2023/01/30 05:05:18;;;;;;;30.85;18.55;;;;;;;5.34;100.00;101469.03;5246409;28;21907;-74
2023/01/30 05:07:50;;;;;;;28.38;17.27;;;;;;;5.39;100.00;101479.38;5243983;28;20045;-74
2023/01/30 05:10:21;;;;;;;30.55;17.25;;;;;;;5.41;100.00;101477.56;5244089;28;20055;-74
2023/01/30 05:12:52;;;;;;;25.38;16.48;;;;;;;5.46;100.00;101475.53;5237852;28;20120;-75
2023/01/30 05:15:24;;;;;;;29.75;15.73;;;;;;;5.54;100.00;101486.63;5239973;28;20053;-74
2023/01/30 05:17:55;;;;;;;26.45;16.23;;;;;;;5.54;100.00;101489.28;5239430;28;20116;-74
2023/01/30 05:20:26;;;;;;;24.02;14.65;;;;;;;5.57;100.00;101488.31;5242290;28;20489;-75
2023/01/30 05:22:58;;;;;;;31.38;14.75;;;;;;;5.60;100.00;101478.44;5237777;28;20102;-75
2023/01/30 05:25:29;;;;;;;25.33;14.32;;;;;;;5.64;100.00;101473.88;5245099;28;20064;-74
2023/01/30 05:28:00;;;;;;;29.67;13.63;;;;;;;5.66;100.00;101470.22;5254744;28;20032;-74
2023/01/30 05:30:31;;;;;;;29.80;15.68;;;;;;;5.66;100.00;101469.38;5248513;28;20032;-74
2023/01/30 05:33:03;;;;;;;22.17;12.40;;;;;;;5.65;100.00;101470.28;5242700;28;20064;-75
2023/01/30 05:35:34;;;;;;;21.85;11.52;;;;;;;5.66;100.00;101472.88;5243022;28;20856;-75
2023/01/30 05:38:05;;;;;;;21.70;11.32;;;;;;;5.68;100.00;101471.00;5238762;28;20463;-75
2023/01/30 05:40:36;;;;;;;21.17;10.40;;;;;;;5.71;100.00;101475.28;5245746;28;20466;-74
2023/01/30 05:43:08;;;;;;;19.92;10.65;;;;;;;5.67;100.00;101474.56;5240807;28;20151;-75
2023/01/30 05:45:39;;;;;;;22.23;9.45;;;;;;;5.72;100.00;101465.56;5240183;28;20025;-75
2023/01/30 05:48:11;;;;;;;20.55;9.88;;;;;;;5.74;100.00;101464.56;5243463;28;20044;-75
2023/01/30 05:50:42;;;;;;;17.33;9.25;;;;;;;5.72;100.00;101470.88;5250841;28;20034;-75
2023/01/30 05:53:13;;;;;;;17.85;9.27;;;;;;;5.72;100.00;101466.44;5247548;28;20036;-75
2023/01/30 05:55:44;;;;;;;20.73;8.70;;;;;;;5.80;100.00;101466.06;5248475;28;20028;-75
2023/01/30 05:58:16;;;;;;;20.77;8.88;;;;;;;5.80;100.00;101466.06;5241817;28;20079;-75
2023/01/30 06:00:47;;;;;;;21.88;9.38;;;;;;;5.78;100.00;101483.81;5247635;28;20333;-75
2023/01/30 06:03:18;;;;;;;14.75;8.65;;;;;;;5.73;100.00;101485.81;5247857;28;20041;-75
2023/01/30 06:05:50;;;;;;;19.15;8.60;;;;;;;5.75;100.00;101499.84;5248497;28;20113;-75
2023/01/30 06:08:21;;;;;;;19.67;9.10;;;;;;;5.78;100.00;101489.97;5251166;28;20509;-76
2023/01/30 06:10:53;;;;;;;21.38;8.55;;;;;;;5.82;100.00;101493.34;5248908;28;20074;-75
2023/01/30 06:13:24;;;;;;;21.70;8.23;;;;;;;5.81;100.00;101491.59;5249056;28;20056;-75
2023/01/30 06:15:55;;;;;;;19.17;7.15;;;;;;;5.85;100.00;101496.72;5262645;28;20491;-76
2023/01/30 06:18:27;;;;;;;19.38;6.88;;;;;;;5.87;100.00;101496.66;5253619;28;20029;-75
2023/01/30 06:20:58;;;;;;;18.40;6.10;;;;;;;5.88;100.00;101493.91;5249926;28;20534;-75
2023/01/30 06:23:30;;;;;;;20.05;5.45;;;;;;;5.88;100.00;101501.00;5252902;28;20064;-76
2023/01/30 06:26:01;;;;;;;15.85;5.45;;;;;;;5.97;100.00;101505.06;5263347;28;20033;-76
2023/01/30 06:28:33;;;;;;;13.30;4.93;;;;;;;5.97;100.00;101497.94;5252390;28;20541;-75
2023/01/30 06:31:06;;;;;;;15.38;6.00;;;;;;;5.99;100.00;101519.94;5252379;28;20036;-76
2023/01/30 06:33:38;;;;;;;15.05;5.30;;;;;;;5.97;100.00;101524.44;5250434;28;20037;-75
2023/01/30 06:36:09;;;;;;;14.50;4.72;;;;;;;6.00;100.00;101534.91;5247269;28;20498;-76
2023/01/30 06:38:40;;;;;;;14.10;4.45;;;;;;;5.91;100.00;101535.28;5252126;28;20475;-76
2023/01/30 06:41:11;;;;;;;12.93;4.18;;;;;;;5.82;100.00;101541.00;5249261;28;20024;-76
2023/01/30 06:43:43;;;;;;;17.05;4.53;;;;;;;5.85;100.00;101525.84;5250834;28;20033;-76
2023/01/30 06:46:14;;;;;;;12.43;3.85;;;;;;;5.77;100.00;101513.88;5262485;28;20436;-75
2023/01/30 06:48:45;;;;;;;15.65;4.88;;;;;;;5.70;100.00;101535.34;5254386;28;20679;-76
2023/01/30 06:51:17;;;;;;;17.77;4.13;;;;;;;5.66;100.00;101540.84;5250127;28;20107;-76
2023/01/30 06:53:48;;;;;;;15.15;4.47;;;;;;;5.66;100.00;101543.50;5257821;28;20062;-76
2023/01/30 06:56:20;;;;;;;12.35;3.50;;;;;;;5.62;100.00;101544.53;5249622;28;20040;-76
2023/01/30 06:58:51;;;;;;;13.93;3.30;;;;;;;5.53;100.00;101548.47;5252313;28;20131;-76
2023/01/30 07:01:22;;;;;;;12.75;3.35;;;;;;;5.46;100.00;101529.31;5257915;28;20020;-75
2023/01/30 07:03:54;;;;;;;11.13;3.08;;;;;;;5.39;100.00;101514.66;5247324;28;20047;-76
2023/01/30 07:06:26;;;;;;;16.13;3.65;;;;;;;5.37;100.00;101510.34;5256510;28;20032;-76
2023/01/30 07:08:57;;;;;;;14.77;3.72;;;;;;;5.30;100.00;101521.22;5256566;28;20488;-76
2023/01/30 07:11:30;;;;;;;14.00;3.22;;;;;;;5.26;100.00;101530.22;5251664;28;20043;-76
2023/01/30 07:14:01;;;;;;;14.38;3.85;;;;;;;5.22;100.00;101533.06;5252938;28;20045;-76
2023/01/30 07:16:32;;;;;;;12.02;3.10;;;;;;;5.21;100.00;101537.47;5248197;28;20478;-76
2023/01/30 07:19:03;;;;;;;11.60;2.97;;;;;;;5.15;100.00;101527.16;5248333;28;20032;-76
2023/01/30 07:21:35;;;;;;;13.80;3.10;;;;;;;5.16;100.00;101543.88;5256222;28;20515;-76
2023/01/30 07:24:06;;;;;;;15.70;3.10;;;;;;;5.17;100.00;101537.69;5253811;28;20802;-76
2023/01/30 07:26:38;;;;;;;14.32;3.78;;;;;;;5.09;100.00;101544.16;5255734;28;20368;-76
2023/01/30 07:29:09;;;;;;;14.05;3.03;;;;;;;5.00;100.00;101547.19;5258088;28;20029;-76
2023/01/30 07:31:41;;;;;;;14.15;3.10;;;;;;;4.99;100.00;101537.53;5258091;28;20160;-76
2023/01/30 07:34:13;;;;;;;15.77;3.40;;;;;;;4.96;100.00;101560.59;5258156;28;20123;-76
2023/01/30 07:36:44;;;;;;;13.68;3.25;;;;;;;4.99;100.00;101555.22;5256792;28;20028;-76
2023/01/30 07:39:15;;;;;;;13.48;2.80;;;;;;;4.91;100.00;101564.31;5255729;28;20090;-77
2023/01/30 07:41:46;;;;;;;11.88;3.17;;;;;;;4.90;100.00;101557.28;5262052;28;20074;-76
2023/01/30 07:44:18;;;;;;;14.38;2.95;;;;;;;4.84;100.00;101565.47;5260141;28;20028;-77
2023/01/30 07:46:49;;;;;;;14.27;2.97;;;;;;;4.87;100.00;101568.00;5254994;28;20533;-77
2023/01/30 07:49:20;;;;;;;13.32;3.20;;;;;;;4.81;100.00;101568.22;5260713;28;20454;-76
2023/01/30 07:51:52;;;;;;;16.95;3.33;;;;;;;4.82;100.00;101569.97;5259890;28;20071;-76
2023/01/30 07:54:23;;;;;;;21.35;3.80;;;;;;;4.80;100.00;101571.81;5261739;28;20103;-76
2023/01/30 07:56:54;;;;;;;18.00;3.33;;;;;;;4.74;100.00;101565.91;5250420;28;20446;-76
2023/01/30 07:59:26;;;;;;;18.80;3.72;;;;;;;4.69;100.00;101559.03;5256709;28;20036;-76
2023/01/30 08:01:57;;;;;;;15.20;3.22;;;;;;;4.66;100.00;101569.75;5248111;28;20024;-76
2023/01/30 08:04:29;;;;;;;22.30;3.58;;;;;;;4.64;100.00;101579.50;5245516;28;20063;-76
2023/01/30 08:07:00;;;;;;;17.48;3.20;;;;;;;4.59;100.00;101573.53;5256540;28;20027;-77
2023/01/30 08:09:31;;;;;;;16.55;2.97;;;;;;;4.61;100.00;101573.47;5256621;28;20533;-76
2023/01/30 08:12:03;;;;;;;20.70;3.80;;;;;;;4.55;100.00;101579.88;5258335;28;20187;-76
2023/01/30 08:14:34;;;;;;;20.27;3.53;;;;;;;4.54;100.00;101586.06;5256585;28;20103;-76
2023/01/30 08:17:05;;;;;;;13.98;2.97;;;;;;;4.51;100.00;101587.06;5255645;28;20502;-76
2023/01/30 08:19:36;;;;;;;15.70;3.38;;;;;;;4.54;100.00;101594.00;5251771;28;20021;-76
2023/01/30 08:22:08;;;;;;;21.85;3.30;;;;;;;4.55;100.00;101589.59;5253209;28;20081;-76
2023/01/30 08:24:39;;;;;;;25.55;4.53;;;;;;;4.51;100.00;101594.97;5252321;28;20497;-76
2023/01/30 08:27:10;;;;;;;23.48;4.28;;;;;;;4.51;100.00;101605.56;5252297;28;20106;-76
2023/01/30 08:29:43;;;;;;;15.27;2.65;;;;;;;4.56;100.00;101609.78;5255309;28;20020;-77
2023/01/30 08:32:14;;;;;;;21.88;4.28;;;;;;;4.54;100.00;101607.19;5253354;28;20098;-77
2023/01/30 08:34:46;;;;;;;18.80;3.22;;;;;;;4.55;100.00;101606.31;5255593;28;20482;-76
2023/01/30 08:37:17;;;;;;;18.15;3.13;;;;;;;4.57;100.00;101612.38;5253913;28;20501;-77
2023/01/30 08:39:48;;;;;;;16.92;3.10;;;;;;;4.55;100.00;101605.44;5251470;28;20499;-77
2023/01/30 08:42:19;;;;;;;18.10;3.33;;;;;;;4.55;100.00;101613.38;5255994;28;20083;-76
2023/01/30 08:44:51;;;;;;;13.57;3.30;;;;;;;4.60;100.00;101619.31;5262440;28;20127;-77
2023/01/30 08:47:22;;;;;;;17.90;3.75;;;;;;;4.64;100.00;101624.44;5245390;28;20376;-76
2023/01/30 08:49:54;;;;;;;16.25;2.90;;;;;;;4.66;100.00;101619.06;5253686;28;20104;-77
2023/01/30 08:52:25;;;;;;;15.02;3.10;;;;;;;4.69;100.00;101624.25;5253428;28;20120;-76
2023/01/30 08:54:56;;;;;;;19.23;3.40;;;;;;;4.74;100.00;101619.66;5249990;28;20025;-77
2023/01/30 08:57:27;;;;;;;20.33;3.08;;;;;;;4.78;100.00;101626.53;5253188;28;20097;-76
2023/01/30 08:59:59;;;;;;;21.55;3.35;;;;;;;4.84;100.00;101621.00;5252756;28;20035;-77
2023/01/30 09:02:30;;;;;;;17.90;3.10;;;;;;;4.84;100.00;101636.00;5264505;28;20032;-77
2023/01/30 09:05:02;;;;;;;17.60;3.70;;;;;;;4.93;100.00;101630.34;5260602;28;20040;-77
2023/01/30 09:07:33;;;;;;;15.68;2.85;;;;;;;4.91;100.00;101648.94;5253505;28;20490;-77
2023/01/30 09:10:05;;;;;;;17.42;3.45;;;;;;;5.02;100.00;101645.81;5249043;28;20025;-77
2023/01/30 09:12:36;;;;;;;19.77;3.10;;;;;;;5.03;100.00;101644.91;5256168;28;20028;-77
2023/01/30 09:15:08;;;;;;;13.48;3.35;;;;;;;5.09;100.00;101652.59;5255966;28;20056;-77
2023/01/30 09:17:39;;;;;;;14.77;3.85;;;;;;;5.08;100.00;101647.38;5252285;28;20159;-76
2023/01/30 09:20:11;;;;;;;13.98;3.22;;;;;;;5.15;100.00;101655.94;5256423;28;20094;-76
2023/01/30 09:22:42;;;;;;;16.50;3.28;;;;;;;5.20;100.00;101654.81;5246812;28;20055;-77
2023/01/30 09:25:14;;;;;;;15.10;3.05;;;;;;;5.22;100.00;101663.56;5256882;28;20036;-77
2023/01/30 09:27:49;;;;;;;15.68;2.80;;;;;;;5.23;100.00;101659.13;5249707;28;20033;-77
2023/01/30 09:30:20;;;;;;;17.40;3.63;;;;;;;5.23;100.00;101669.69;5256372;28;20039;-77
2023/01/30 09:32:52;;;;;;;18.65;3.88;;;;;;;5.25;100.00;101671.38;5251062;28;20029;-77
2023/01/30 09:35:23;;;;;;;19.15;3.78;;;;;;;5.33;100.00;101676.34;5249193;28;20550;-78
2023/01/30 09:37:54;;;;;;;15.57;3.03;;;;;;;5.45;100.00;101672.34;5251239;28;20145;-77
2023/01/30 09:40:28;;;;;;;20.58;3.83;;;;;;;5.52;100.00;101683.50;5254221;28;20044;-77
2023/01/30 09:43:33;;;;;;;20.80;3.07;;;;;;;5.53;100.00;101683.44;5253516;28;20041;-77
2023/01/30 09:46:16;;;;;;;16.63;3.92;;;;;;;5.69;100.00;101678.34;5251204;28;20040;-78
2023/01/30 09:48:54;;;;;;;20.50;3.50;;;;;;;5.80;100.00;101683.22;5247522;28;20041;-78
2023/01/30 09:51:25;;;;;;;15.43;3.08;;;;;;;5.85;100.00;101678.59;5245889;28;20283;-78
2023/01/30 09:54:03;;;;;;;13.80;3.38;;;;;;;5.95;100.00;101684.34;5249852;28;20494;-78
2023/01/30 09:56:34;;;;;;;21.02;3.50;;;;;;;5.99;100.00;101685.97;5245763;28;20116;-78
2023/01/30 09:59:06;;;;;;;19.50;3.63;;;;;;;5.96;100.00;101694.88;5254038;28;20394;-78
2023/01/30 10:02:08;;;;;;;18.73;4.00;;;;;;;6.12;100.00;101699.50;5249782;28;20020;-77
2023/01/30 10:04:44;;;;;;;22.00;3.10;;;;;;;6.11;100.00;101692.50;5248207;28;20712;-78
2023/01/30 10:07:31;;;;;;;15.85;3.08;;;;;;;6.15;100.00;101696.72;5250757;28;20032;-78
2023/01/30 10:10:26;;;;;;;17.02;2.80;;;;;;;6.25;100.00;101698.03;5251837;28;20025;-78
2023/01/30 10:13:03;;;;;;;16.05;3.08;;;;;;;6.23;100.00;101719.31;5249927;28;20036;-78
2023/01/30 10:15:52;;;;;;;12.32;2.22;;;;;;;6.39;100.00;101703.59;5250316;28;20035;-77
2023/01/30 10:18:49;;;;;;;19.50;2.95;;;;;;;6.59;100.00;101710.63;5249455;28;20110;-78
2023/01/30 10:21:49;;;;;;;13.25;2.15;;;;;;;6.45;100.00;101713.91;5263284;28;20069;-78
2023/01/30 10:24:52;;;;;;;14.05;2.80;;;;;;;6.48;100.00;101718.19;5251123;28;20028;-77
2023/01/30 10:27:26;;;;;;;16.13;3.08;;;;;;;6.51;100.00;101719.88;5252205;28;20047;-79
2023/01/30 10:30:01;;;;;;;16.08;3.20;;;;;;;6.55;100.00;101718.78;5252694;28;20028;-79
2023/01/30 10:32:57;;;;;;;14.80;2.50;;;;;;;6.73;100.00;101714.44;5248474;28;20025;-78
2023/01/30 10:35:34;;;;;;;19.08;3.28;;;;;;;6.57;100.00;101724.88;5250112;28;20102;-78
2023/01/30 10:38:25;;;;;;;11.38;2.25;;;;;;;6.68;100.00;101717.31;5249619;28;20060;-78
2023/01/30 10:41:14;;;;;;;16.95;2.55;;;;;;;6.62;100.00;101734.34;5248131;28;20082;-79
2023/01/30 10:44:00;;;;;;;18.40;3.60;;;;;;;6.72;100.00;101712.72;5250925;28;20029;-78
2023/01/30 10:46:45;;;;;;;14.75;2.58;;;;;;;6.66;100.00;101732.44;5249762;28;20085;-78
2023/01/30 10:49:35;;;;;;;14.73;2.67;;;;;;;6.71;100.00;101740.16;5252204;28;20024;-78
2023/01/30 10:52:34;;;;;;;15.27;3.05;;;;;;;6.75;100.00;101734.66;5248995;28;20028;-78
2023/01/30 10:55:11;;;;;;;14.27;2.50;;;;;;;6.65;100.00;101739.53;5253053;28;20045;-78
2023/01/30 10:57:48;;;;;;;15.05;2.45;;;;;;;6.67;100.00;101742.09;5246600;28;20090;-78
2023/01/30 11:00:28;;;;;;;16.10;3.13;;;;;;;6.73;100.00;101741.84;5251429;28;20044;-79
2023/01/30 11:03:21;;;;;;;16.67;2.90;;;;;;;6.60;100.00;101744.19;5254404;28;20044;-77
2023/01/30 11:06:22;;;;;;;19.33;4.38;;;;;;;6.63;100.00;101737.84;5245800;28;20407;-78
2023/01/30 11:08:54;;;;;;;14.82;2.60;;;;;;;6.61;100.00;101740.56;5248981;28;20036;-78
2023/01/30 11:11:42;;;;;;;15.23;2.72;;;;;;;6.61;100.00;101732.63;5251736;28;20044;-77
2023/01/30 11:14:13;;;;;;;15.05;2.58;;;;;;;6.63;100.00;101749.31;5247996;28;20028;-78
2023/01/30 11:16:51;;;;;;;18.75;4.00;;;;;;;6.60;100.00;101756.56;5253392;28;20044;-78
2023/01/30 11:19:29;;;;;;;16.20;2.63;;;;;;;6.59;100.00;101749.53;5254556;28;20048;-77
2023/01/30 11:22:03;;;;;;;13.80;2.80;;;;;;;6.58;100.00;101766.41;5251840;28;20065;-77
2023/01/30 11:24:43;;;;;;;16.05;3.17;;;;;;;6.62;100.00;101757.38;5246578;28;20487;-77
2023/01/30 11:27:27;;;;;;;16.05;2.83;;;;;;;6.61;100.00;101745.03;5251484;28;20035;-77
2023/01/30 11:30:14;;;;;;;15.70;2.67;;;;;;;6.64;100.00;101740.44;5255017;28;20470;-77
2023/01/30 11:32:48;;;;;;;18.08;3.47;;;;;;;6.67;100.00;101742.09;5253480;28;20367;-78
2023/01/30 11:35:25;;;;;;;11.27;3.42;;;;;;;6.68;100.00;101749.97;5251544;28;20035;-78
2023/01/30 11:38:18;;;;;;;13.63;3.00;;;;;;;6.67;100.00;101752.69;5257053;28;20059;-77
2023/01/30 11:41:01;;;;;;;13.38;2.75;;;;;;;6.75;100.00;101750.56;5251462;28;20392;-78
2023/01/30 11:43:35;;;;;;;11.68;3.13;;;;;;;6.74;100.00;101745.34;5256463;28;20049;-78
2023/01/30 11:46:10;;;;;;;18.58;3.80;;;;;;;6.70;100.00;101744.63;5263975;28;20025;-77
2023/01/30 11:48:46;;;;;;;19.40;3.03;;;;;;;6.78;100.00;101753.06;5257144;28;20048;-78
2023/01/30 11:51:18;;;;;;;13.63;2.50;;;;;;;6.79;99.54;101765.41;5255780;28;20020;-77
2023/01/30 11:53:58;;;;;;;13.15;3.13;;;;;;;6.73;100.00;101752.44;5255084;28;20054;-77
2023/01/30 11:56:45;;;;;;;16.48;3.10;;;;;;;6.77;99.76;101759.31;5255789;28;20033;-78